createdAt,value
2022-11-24T00:45:38.142Z,5.60
2022-11-24T00:48:07.855Z,5.28
2022-11-24T00:50:37.258Z,6.00
2022-11-24T00:53:06.658Z,5.50
2022-11-24T00:55:36.029Z,5.82
2022-11-24T00:58:05.159Z,6.15
2022-11-24T01:48:17.112Z,5.03
2022-11-24T01:50:47.834Z,4.90
2022-11-24T01:53:16.904Z,5.03
2022-11-24T01:55:45.766Z,5.50
2022-11-24T01:58:24.646Z,5.38
2022-11-24T02:47:46.021Z,4.95
2022-11-24T02:50:15.050Z,5.00
2022-11-24T02:52:44.053Z,5.22
2022-11-24T02:55:13.127Z,4.50
2022-11-24T02:57:41.928Z,5.18
2022-11-24T03:00:12.614Z,5.22
2022-11-24T03:47:08.972Z,4.65
2022-11-24T03:49:38.282Z,4.60
2022-11-24T03:52:10.923Z,4.60
2022-11-24T03:54:39.813Z,4.70
2022-11-24T03:57:11.178Z,4.78
2022-11-24T03:59:42.472Z,4.60
2022-11-24T04:46:25.316Z,3.80
2022-11-24T04:48:54.172Z,3.90
2022-11-24T04:51:48.492Z,4.38
2022-11-24T04:54:17.347Z,4.07
2022-11-24T04:56:46.250Z,4.10
2022-11-24T04:59:16.079Z,3.70
2022-11-24T05:30:17.825Z,4.00
2022-11-24T05:32:46.245Z,4.32
2022-11-24T05:35:15.176Z,4.32
2022-11-24T05:37:47.652Z,4.30
2022-11-24T05:40:16.413Z,4.05
2022-11-24T05:42:48.008Z,4.32
2022-11-24T05:45:21.351Z,3.92
2022-11-24T05:47:51.394Z,4.65
2022-11-24T05:50:23.258Z,4.13
2022-11-24T05:52:52.601Z,3.97
2022-11-24T05:55:21.726Z,4.35
2022-11-24T05:57:50.925Z,4.10
2022-11-24T06:00:22.623Z,4.30
2022-11-24T06:02:51.688Z,4.72
2022-11-24T06:05:20.497Z,4.15
2022-11-24T06:07:49.259Z,4.60
2022-11-24T06:10:21.962Z,4.22
2022-11-24T06:12:52.776Z,4.40
2022-11-24T06:15:23.823Z,4.78
2022-11-24T06:17:59.684Z,4.35
2022-11-24T06:20:32.612Z,4.50
2022-11-24T06:23:04.938Z,4.30
2022-11-24T06:25:35.977Z,4.50
2022-11-24T06:28:06.890Z,4.40
2022-11-24T06:30:39.795Z,4.05
2022-11-24T06:33:08.650Z,4.22
2022-11-24T06:35:38.535Z,5.53
2022-11-24T06:38:08.100Z,6.00
2022-11-24T06:40:37.021Z,5.50
2022-11-24T06:43:06.248Z,5.63
2022-11-24T06:45:36.265Z,5.90
2022-11-24T06:48:05.718Z,6.13
2022-11-24T06:50:34.955Z,5.88
2022-11-24T06:53:03.969Z,5.65
2022-11-24T06:55:34.645Z,5.70
2022-11-24T06:58:03.911Z,5.97
2022-11-24T07:00:33.173Z,7.10
2022-11-24T07:03:07.210Z,8.55
2022-11-24T07:05:36.070Z,9.57
2022-11-24T07:08:05.033Z,8.38
2022-11-24T07:10:39.299Z,7.40
2022-11-24T07:13:15.248Z,7.30
2022-11-24T07:15:44.595Z,7.65
2022-11-24T07:52:46.978Z,6.97
2022-11-24T07:55:33.709Z,6.25
2022-11-24T07:58:03.435Z,6.43
2022-11-24T08:00:31.844Z,6.00
2022-11-24T08:03:00.283Z,5.97
2022-11-24T08:05:28.652Z,6.80
2022-11-24T08:07:56.978Z,6.35
2022-11-24T08:10:25.280Z,6.38
2022-11-24T08:12:53.656Z,6.40
2022-11-24T08:15:23.316Z,5.97
2022-11-24T08:17:51.656Z,6.18
2022-11-24T08:20:20.288Z,6.00
2022-11-24T08:22:48.506Z,6.85
2022-11-24T08:25:18.443Z,6.07
2022-11-24T08:27:46.817Z,6.15
2022-11-24T08:30:15.934Z,6.22
2022-11-24T08:32:45.654Z,5.82
2022-11-24T08:35:14.641Z,5.72
2022-11-24T08:37:43.228Z,5.82
2022-11-24T08:40:13.653Z,6.10
2022-11-24T08:42:41.930Z,6.07
2022-11-24T08:45:20.593Z,5.75
2022-11-24T08:47:55.115Z,6.13
2022-11-24T08:50:23.969Z,5.95
2022-11-24T08:52:53.559Z,6.57
2022-11-24T08:55:22.322Z,6.00
2022-11-24T08:57:50.586Z,5.50
2022-11-24T09:00:22.482Z,6.32
2022-11-24T09:02:59.672Z,5.88
2022-11-24T09:08:16.239Z,5.57
2022-11-24T09:10:44.521Z,5.95
2022-11-24T09:13:14.402Z,5.68
2022-11-24T09:15:42.705Z,6.38
2022-11-24T09:18:12.342Z,5.97
2022-11-24T09:20:40.728Z,5.90
2022-11-24T09:23:09.069Z,5.55
2022-11-24T09:25:37.461Z,5.65
2022-11-24T09:28:06.035Z,6.00
2022-11-24T09:30:34.389Z,5.80
2022-11-24T09:33:02.775Z,5.95
2022-11-24T09:35:32.432Z,6.13
2022-11-24T09:38:00.705Z,5.95
2022-11-24T09:40:29.004Z,5.47
2022-11-24T09:43:04.155Z,4.95
2022-11-24T09:48:37.547Z,5.43
2022-11-24T09:51:11.379Z,5.32
2022-11-24T09:53:45.273Z,5.57
2022-11-24T09:56:21.891Z,5.22
2022-11-24T09:58:52.595Z,5.88
2022-11-24T10:01:25.214Z,5.00
2022-11-24T10:03:54.865Z,5.15
2022-11-24T10:06:27.214Z,5.30
2022-11-24T10:09:33.243Z,5.50
2022-11-24T10:12:17.256Z,5.68
2022-11-24T10:15:21.688Z,4.88
2022-11-24T10:18:25.086Z,5.18
2022-11-24T10:21:04.873Z,5.50
2022-11-24T10:23:56.214Z,5.65
2022-11-24T10:26:36.108Z,5.57
2022-11-24T10:29:19.931Z,5.50
2022-11-24T10:31:51.078Z,6.10
2022-11-24T10:34:22.200Z,5.95
2022-11-24T10:36:59.026Z,5.88
2022-11-24T10:39:36.613Z,5.90
2022-11-24T10:42:15.141Z,5.88
2022-11-24T10:44:44.983Z,5.82
2022-11-24T10:47:22.558Z,5.90
2022-11-24T10:49:58.013Z,5.40
2022-11-24T10:52:27.759Z,5.47
2022-11-24T10:54:59.989Z,5.85
2022-11-24T10:57:34.300Z,5.25
2022-11-24T11:00:05.607Z,15.30
2022-11-24T11:02:38.609Z,17.75
2022-11-24T11:05:42.177Z,40.78
2022-11-24T11:08:23.975Z,31.08
2022-11-24T11:11:22.003Z,27.80
2022-11-24T11:14:01.491Z,29.55
2022-11-24T11:16:37.111Z,32.30
2022-11-24T11:19:26.153Z,30.73
2022-11-24T11:22:03.332Z,41.33
2022-11-24T11:24:31.966Z,51.05
2022-11-24T11:27:18.028Z,51.45
2022-11-24T11:35:26.250Z,53.40
2022-11-24T11:37:56.113Z,60.42
2022-11-24T11:40:30.398Z,60.78
2022-11-24T11:43:05.806Z,64.65
2022-11-24T11:45:37.870Z,77.40
2022-11-24T11:48:28.346Z,158.15
2022-11-24T11:54:04.847Z,669.88
2022-11-24T11:56:40.251Z,671.78
2022-11-24T11:59:42.969Z,599.38
2022-11-24T12:02:48.559Z,564.13
2022-11-24T12:05:31.329Z,534.67
2022-11-24T12:08:28.926Z,520.40
2022-11-24T12:11:09.187Z,517.22
2022-11-24T12:13:54.937Z,602.05
2022-11-24T12:16:40.381Z,541.83
2022-11-24T12:19:37.932Z,539.35
2022-11-24T12:22:16.545Z,551.42
2022-11-24T12:24:55.801Z,606.95
2022-11-24T12:27:40.639Z,575.03
2022-11-24T12:30:15.165Z,574.15
2022-11-24T12:33:15.362Z,583.05
2022-11-24T12:35:46.421Z,570.33
2022-11-24T12:38:42.888Z,553.88
2022-11-24T12:41:46.080Z,507.73
2022-11-24T12:44:36.382Z,439.92
2022-11-24T12:47:14.960Z,422.52
2022-11-24T12:50:11.582Z,423.50
2022-11-24T12:52:47.941Z,416.65
2022-11-24T12:55:21.978Z,418.98
2022-11-24T12:57:59.780Z,407.65
2022-11-24T13:00:36.642Z,405.95
2022-11-24T13:03:22.055Z,401.15
2022-11-24T13:05:58.771Z,397.23
2022-11-24T13:08:28.892Z,393.30
2022-11-24T13:11:38.938Z,374.05
2022-11-24T13:14:13.566Z,337.30
2022-11-24T13:19:44.378Z,325.40
2022-11-24T13:22:23.700Z,323.33
2022-11-24T13:25:16.019Z,320.60
2022-11-24T13:27:48.177Z,315.67
2022-11-24T13:30:58.461Z,320.15
2022-11-24T13:33:38.538Z,313.27
2022-11-24T13:36:48.367Z,311.45
2022-11-24T13:39:22.645Z,312.00
2022-11-24T13:42:09.360Z,311.10
2022-11-24T13:44:55.429Z,299.98
2022-11-24T13:47:41.137Z,299.75
2022-11-24T13:50:25.431Z,302.48
2022-11-24T13:53:07.363Z,296.83
2022-11-24T13:55:40.808Z,294.38
2022-11-24T13:58:32.779Z,291.92
2022-11-24T14:01:19.090Z,288.05
2022-11-24T14:07:05.510Z,281.77
2022-11-24T14:09:43.350Z,278.83
2022-11-24T14:12:19.328Z,276.45
2022-11-24T14:14:49.551Z,273.08
2022-11-24T14:17:23.015Z,272.42
2022-11-24T14:19:54.029Z,267.38
2022-11-24T14:22:26.989Z,268.95
2022-11-24T14:24:57.602Z,264.67
2022-11-24T14:27:33.651Z,262.63
2022-11-24T14:30:05.516Z,258.20
2022-11-24T14:32:34.010Z,261.50
2022-11-24T14:35:02.529Z,251.38
2022-11-24T14:37:31.576Z,241.85
2022-11-24T14:39:59.883Z,231.90
2022-11-24T14:42:33.257Z,202.68
2022-11-24T14:45:03.826Z,205.25
2022-11-24T14:47:36.121Z,161.80
2022-11-24T14:50:15.002Z,159.90
2022-11-24T14:52:48.573Z,157.48
2022-11-24T14:55:29.187Z,149.50
2022-11-24T14:57:59.934Z,144.77
2022-11-24T15:00:31.552Z,143.23
2022-11-24T15:03:17.285Z,133.32
2022-11-24T15:05:56.335Z,120.95
2022-11-24T15:08:26.526Z,113.60
2022-11-24T15:11:03.132Z,111.32
2022-11-24T15:13:38.260Z,108.43
2022-11-24T15:16:13.055Z,102.88
2022-11-24T15:18:44.476Z,96.68
2022-11-24T15:21:18.855Z,88.88
2022-11-24T15:24:08.453Z,86.13
2022-11-24T15:26:41.715Z,75.70
2022-11-24T15:29:12.976Z,69.80
2022-11-24T15:31:44.220Z,70.95
2022-11-24T15:34:16.121Z,66.50
2022-11-24T15:36:44.400Z,61.42
2022-11-24T15:39:12.875Z,59.17
2022-11-24T15:41:42.981Z,59.75
2022-11-24T15:44:12.684Z,58.35
2022-11-24T15:46:40.999Z,55.70
2022-11-24T15:49:09.429Z,54.88
2022-11-24T15:51:43.534Z,53.67
2022-11-24T15:54:16.884Z,53.70
2022-11-24T15:56:45.376Z,52.00
2022-11-24T15:59:20.335Z,51.03
2022-11-24T16:01:49.776Z,50.60
2022-11-24T16:04:18.968Z,51.90
2022-11-24T16:06:47.965Z,52.40
2022-11-24T16:09:17.624Z,49.67
2022-11-24T16:11:46.345Z,49.47
2022-11-24T16:14:16.259Z,49.17
2022-11-24T16:16:46.109Z,47.85
2022-11-24T16:19:16.164Z,48.17
2022-11-24T16:21:44.485Z,48.35
2022-11-24T16:24:16.008Z,46.55
2022-11-24T16:26:44.404Z,45.88
2022-11-24T16:29:12.944Z,44.28
2022-11-24T16:31:43.488Z,44.08
2022-11-24T16:34:11.956Z,45.63
2022-11-24T16:36:40.316Z,45.30
2022-11-24T16:39:08.631Z,44.90
2022-11-24T16:41:36.943Z,43.25
2022-11-24T16:44:05.861Z,44.40
2022-11-24T16:46:34.261Z,42.97
2022-11-24T16:49:04.481Z,42.40
2022-11-24T16:51:36.820Z,43.42
2022-11-24T16:54:05.531Z,41.15
2022-11-24T16:56:37.767Z,40.75
2022-11-24T16:59:11.296Z,43.00
2022-11-24T17:01:40.529Z,41.05
2022-11-24T17:04:12.818Z,41.00
2022-11-24T17:06:41.743Z,40.88
2022-11-24T17:09:12.064Z,39.33
2022-11-24T17:11:42.279Z,40.00
2022-11-24T17:14:12.867Z,38.97
2022-11-24T17:16:42.829Z,39.08
2022-11-24T17:19:14.076Z,38.03
2022-11-24T17:21:43.646Z,37.45
2022-11-24T17:24:17.633Z,38.45
2022-11-24T17:26:49.122Z,35.88
2022-11-24T17:29:19.335Z,35.55
2022-11-24T17:31:50.051Z,35.70
2022-11-24T17:34:21.901Z,35.03
2022-11-24T17:36:51.935Z,36.20
2022-11-24T17:39:25.298Z,34.00
2022-11-24T17:41:54.705Z,34.03
2022-11-24T17:44:24.445Z,32.65
2022-11-24T17:46:54.071Z,32.28
2022-11-24T17:49:25.994Z,31.88
2022-11-24T17:51:56.014Z,33.38
2022-11-24T17:57:17.145Z,33.88
2022-11-24T17:59:51.336Z,32.10
2022-11-24T18:02:20.173Z,31.88
2022-11-24T18:04:50.095Z,30.15
2022-11-24T18:07:21.302Z,32.05
2022-11-24T18:09:49.638Z,31.60
2022-11-24T18:12:17.990Z,29.75
2022-11-24T18:14:47.209Z,30.35
2022-11-24T18:17:15.553Z,29.75
2022-11-24T18:19:44.014Z,30.80
2022-11-24T18:22:13.721Z,29.45
2022-11-24T18:24:43.160Z,29.77
2022-11-24T18:27:13.081Z,28.23
2022-11-24T18:29:41.358Z,29.02
2022-11-24T18:32:10.013Z,26.92
2022-11-24T18:34:39.187Z,27.30
2022-11-24T18:37:08.666Z,26.75
2022-11-24T18:39:42.585Z,27.88
2022-11-24T18:42:11.722Z,27.05
2022-11-24T18:44:42.337Z,26.35
2022-11-24T18:47:11.199Z,25.60
2022-11-24T18:49:39.836Z,25.98
2022-11-24T18:52:08.876Z,25.73
2022-11-24T18:54:39.369Z,25.73
2022-11-24T18:57:08.605Z,27.55
2022-11-24T18:59:37.331Z,28.13
2022-11-24T19:02:06.115Z,29.95
2022-11-24T19:04:35.092Z,30.77
2022-11-24T19:07:03.967Z,31.20
2022-11-24T19:09:32.828Z,29.67
2022-11-24T19:12:04.126Z,29.50
2022-11-24T19:14:33.212Z,29.23
2022-11-24T19:17:03.381Z,27.67
2022-11-24T19:19:36.410Z,26.42
2022-11-24T19:22:05.755Z,26.88
2022-11-24T19:24:34.864Z,25.95
2022-11-24T19:27:06.491Z,25.30
2022-11-24T19:29:42.919Z,25.70
2022-11-24T19:32:15.442Z,25.17
2022-11-24T19:34:45.499Z,24.70
2022-11-24T19:37:14.556Z,24.50
2022-11-24T19:39:43.393Z,23.35
2022-11-24T19:42:15.298Z,23.83
2022-11-24T19:44:44.475Z,22.88
2022-11-24T19:47:13.318Z,22.88
2022-11-24T19:49:42.833Z,22.63
2022-11-24T19:52:11.901Z,24.08
2022-11-24T19:54:40.694Z,23.88
2022-11-24T19:57:09.737Z,23.17
2022-11-24T19:59:40.553Z,21.33
2022-11-24T20:02:11.877Z,22.15
2022-11-24T20:04:43.733Z,22.45
2022-11-24T20:07:14.879Z,21.65
2022-11-24T20:09:43.998Z,20.65
2022-11-24T20:12:13.034Z,21.45
2022-11-24T20:14:43.391Z,21.70
2022-11-24T20:17:14.149Z,21.23
2022-11-24T20:19:43.472Z,20.13
2022-11-24T20:22:12.200Z,21.55
2022-11-24T20:24:41.718Z,20.55
2022-11-24T20:27:10.338Z,19.70
2022-11-24T20:29:45.275Z,20.15
2022-11-24T20:32:19.780Z,20.05
2022-11-24T20:34:49.325Z,20.05
2022-11-24T20:37:18.421Z,20.15
2022-11-24T20:39:47.446Z,19.83
2022-11-24T20:42:16.336Z,19.60
2022-11-24T20:44:45.159Z,18.83
2022-11-24T20:47:15.325Z,18.83
2022-11-24T20:49:44.548Z,17.92
2022-11-24T20:52:13.555Z,17.25
2022-11-24T20:54:42.534Z,17.40
2022-11-24T20:57:11.156Z,16.23
2022-11-24T20:59:40.204Z,16.42
2022-11-24T21:02:10.813Z,15.45
2022-11-24T21:04:40.960Z,14.90
2022-11-24T21:07:13.417Z,15.00
2022-11-24T21:09:42.210Z,14.98
2022-11-24T21:12:11.310Z,15.88
2022-11-24T21:14:40.844Z,14.88
2022-11-24T21:17:11.174Z,14.70
2022-11-24T21:19:41.655Z,14.98
2022-11-24T21:22:11.665Z,15.10
2022-11-24T21:24:41.316Z,15.13
2022-11-24T21:27:11.236Z,15.48
2022-11-24T21:29:40.601Z,15.10
2022-11-24T21:32:10.489Z,15.45
2022-11-24T21:34:40.632Z,14.32
2022-11-24T21:37:09.279Z,14.82
2022-11-24T21:39:37.772Z,14.63
2022-11-24T21:42:07.029Z,14.27
2022-11-24T21:44:35.886Z,15.00
2022-11-24T21:47:04.765Z,13.88
2022-11-24T21:49:33.214Z,14.63
2022-11-24T21:52:03.131Z,13.63
2022-11-24T21:54:31.556Z,13.50
2022-11-24T21:57:00.313Z,13.80
2022-11-24T21:59:28.815Z,12.80
2022-11-24T22:01:57.736Z,13.93
2022-11-24T22:04:26.732Z,12.77
2022-11-24T22:06:55.433Z,12.75
2022-11-24T22:09:25.354Z,14.18
2022-11-24T22:11:54.697Z,13.13
2022-11-24T22:14:23.498Z,12.98
2022-11-24T22:17:06.069Z,13.43
2022-11-24T22:19:34.997Z,13.15
2022-11-24T22:22:03.563Z,13.68
2022-11-24T22:24:33.592Z,13.00
2022-11-24T22:27:02.973Z,12.38
2022-11-24T22:29:31.364Z,12.50
2022-11-24T22:32:00.004Z,13.75
2022-11-24T22:34:28.431Z,12.18
2022-11-24T22:36:56.703Z,12.43
2022-11-24T22:39:25.046Z,12.80
2022-11-24T22:41:55.442Z,12.57
2022-11-24T22:44:23.770Z,12.98
2022-11-24T22:46:52.226Z,13.32
2022-11-24T22:49:20.504Z,12.35
2022-11-24T22:51:48.934Z,12.32
2022-11-24T22:54:17.190Z,12.52
2022-11-24T22:56:45.479Z,11.95
2022-11-24T22:59:15.146Z,12.20
2022-11-24T23:01:43.494Z,12.43
2022-11-24T23:04:12.099Z,12.27
2022-11-24T23:06:40.674Z,11.90
2022-11-24T23:09:11.775Z,12.00
2022-11-24T23:11:42.280Z,12.75
2022-11-24T23:14:16.530Z,12.52
2022-11-24T23:46:03.883Z,11.40
2022-11-24T23:48:32.561Z,12.10
2022-11-24T23:51:06.136Z,11.32
2022-11-24T23:53:35.633Z,11.52
2022-11-24T23:56:04.745Z,11.70
2022-11-24T23:58:34.107Z,11.50
